createdAt,value
2018-09-24T00:01:19.072Z,46.73
2018-09-24T00:03:47.520Z,44.17
2018-09-24T00:06:16.101Z,44.23
2018-09-24T00:08:44.580Z,49.60
2018-09-24T00:11:13.017Z,48.67
2018-09-24T00:13:41.459Z,46.97
2018-09-24T00:16:09.977Z,49.40
2018-09-24T00:18:38.408Z,43.47
2018-09-24T00:21:07.206Z,50.07
2018-09-24T00:23:35.788Z,45.13
2018-09-24T00:26:04.253Z,42.80
2018-09-24T00:28:32.726Z,46.00
2018-09-24T00:31:01.176Z,50.90
2018-09-24T00:33:29.623Z,44.13
2018-09-24T00:35:58.064Z,40.90
2018-09-24T00:38:26.593Z,48.40
2018-09-24T00:40:55.034Z,45.47
2018-09-24T00:43:23.540Z,46.43
2018-09-24T00:45:51.948Z,42.50
2018-09-24T00:48:20.531Z,43.70
2018-09-24T00:50:48.988Z,47.33
2018-09-24T00:53:17.523Z,45.27
2018-09-24T00:55:45.941Z,47.97
2018-09-24T00:58:14.384Z,47.17
2018-09-24T01:00:42.814Z,48.17
2018-09-24T01:03:11.238Z,50.17
2018-09-24T01:05:39.744Z,42.87
2018-09-24T01:08:08.317Z,53.93
2018-09-24T01:10:36.850Z,49.43
2018-09-24T01:13:05.444Z,48.50
2018-09-24T01:15:33.889Z,46.03
2018-09-24T01:18:02.338Z,49.93
2018-09-24T01:20:30.902Z,48.00
2018-09-24T01:22:59.338Z,49.03
2018-09-24T01:25:27.793Z,49.17
2018-09-24T01:27:56.317Z,65.30
2018-09-24T01:30:24.857Z,55.63
2018-09-24T01:32:53.444Z,48.67
2018-09-24T01:35:21.868Z,63.83
2018-09-24T01:37:50.878Z,61.83
2018-09-24T01:40:19.342Z,60.27
2018-09-24T01:42:47.944Z,56.47
2018-09-24T01:45:16.509Z,59.40
2018-09-24T01:47:45.001Z,54.90
2018-09-24T01:50:13.417Z,52.50
2018-09-24T01:52:41.888Z,53.90
2018-09-24T01:55:10.339Z,55.53
2018-09-24T01:57:38.854Z,58.60
2018-09-24T02:00:07.503Z,62.50
2018-09-24T02:02:36.110Z,55.57
2018-09-24T02:05:04.716Z,60.07
2018-09-24T02:07:33.266Z,56.47
2018-09-24T02:10:01.709Z,64.77
2018-09-24T02:12:30.166Z,61.70
2018-09-24T02:14:58.702Z,56.27
2018-09-24T02:17:27.172Z,60.70
2018-09-24T02:19:55.571Z,58.53
2018-09-24T02:22:28.825Z,54.73
2018-09-24T02:24:58.209Z,60.43
2018-09-24T02:27:26.917Z,65.23
2018-09-24T02:29:55.424Z,55.17
2018-09-24T02:32:23.919Z,61.17
2018-09-24T02:34:54.733Z,57.93
2018-09-24T02:37:23.246Z,63.93
2018-09-24T02:39:51.656Z,54.77
2018-09-24T02:42:20.087Z,66.63
2018-09-24T02:44:55.065Z,59.50
2018-09-24T02:47:23.743Z,59.63
2018-09-24T02:49:52.159Z,58.07
2018-09-24T02:52:20.597Z,54.83
2018-09-24T02:54:49.092Z,56.40
2018-09-24T02:57:17.530Z,50.27
2018-09-24T02:59:45.968Z,52.87
2018-09-24T03:02:14.426Z,54.33
2018-09-24T03:04:42.881Z,59.17
2018-09-24T03:07:11.324Z,48.90
2018-09-24T03:09:39.870Z,56.27
2018-09-24T03:12:08.326Z,57.00
2018-09-24T03:14:36.801Z,59.63
2018-09-24T03:17:05.224Z,46.83
2018-09-24T03:19:33.664Z,61.80
2018-09-24T03:22:02.145Z,50.10
2018-09-24T03:24:30.588Z,56.70
2018-09-24T03:26:59.049Z,52.17
2018-09-24T03:29:27.525Z,53.37
2018-09-24T03:31:55.949Z,54.33
2018-09-24T03:34:24.382Z,46.60
2018-09-24T03:36:52.826Z,59.00
2018-09-24T03:39:21.305Z,59.97
2018-09-24T03:41:49.826Z,67.60
2018-09-24T03:44:18.319Z,54.90
2018-09-24T03:46:46.790Z,58.73
2018-09-24T03:49:15.243Z,58.40
2018-09-24T03:51:43.750Z,58.50
2018-09-24T03:54:12.216Z,52.07
2018-09-24T03:56:40.667Z,55.97
2018-09-24T03:59:09.141Z,51.10
2018-09-24T04:01:37.593Z,57.80
2018-09-24T04:04:11.447Z,49.00
2018-09-24T04:06:45.231Z,51.53
2018-09-24T04:09:19.194Z,50.57
2018-09-24T04:11:53.195Z,47.77
2018-09-24T04:14:26.973Z,50.80
2018-09-24T04:17:00.760Z,48.60
2018-09-24T04:19:37.400Z,52.73
2018-09-24T04:22:11.292Z,54.57
2018-09-24T04:24:44.938Z,48.87
2018-09-24T04:27:18.898Z,49.50
2018-09-24T04:29:52.565Z,51.77
2018-09-24T04:32:26.349Z,45.63
2018-09-24T04:35:00.318Z,49.77
2018-09-24T04:37:34.093Z,50.80
2018-09-24T04:40:08.049Z,50.73
2018-09-24T04:42:42.089Z,48.33
2018-09-24T04:45:15.817Z,57.33
2018-09-24T04:47:49.499Z,42.57
2018-09-24T04:50:23.595Z,49.07
2018-09-24T04:53:04.471Z,52.07
2018-09-24T04:55:38.229Z,45.97
2018-09-24T04:58:12.186Z,50.77
2018-09-24T05:00:45.908Z,48.57
2018-09-24T05:03:19.751Z,43.03
2018-09-24T05:05:53.378Z,43.03
2018-09-24T05:08:26.970Z,47.77
2018-09-24T05:11:00.872Z,43.47
2018-09-24T05:13:34.649Z,45.97
2018-09-24T05:16:08.602Z,45.10
2018-09-24T05:18:42.349Z,45.73
2018-09-24T05:21:16.260Z,51.27
2018-09-24T05:23:49.956Z,45.23
2018-09-24T05:26:23.636Z,42.63
2018-09-24T05:28:57.569Z,42.87
2018-09-24T05:31:31.278Z,52.97
2018-09-24T05:34:05.050Z,52.10
2018-09-24T05:36:38.722Z,49.90
2018-09-24T05:39:13.917Z,40.87
2018-09-24T05:41:47.911Z,47.67
2018-09-24T05:44:21.601Z,50.87
2018-09-24T05:46:55.406Z,43.70
2018-09-24T05:49:29.180Z,45.93
2018-09-24T05:52:03.129Z,48.30
2018-09-24T05:54:36.896Z,42.53
2018-09-24T05:57:10.959Z,46.40
2018-09-24T05:59:44.681Z,41.27
2018-09-24T06:02:18.668Z,45.13
2018-09-24T06:04:52.461Z,42.20
2018-09-24T06:07:26.369Z,41.10
2018-09-24T06:10:00.200Z,46.10
2018-09-24T06:12:33.779Z,41.40
2018-09-24T06:15:07.433Z,34.17
2018-09-24T06:17:41.028Z,40.03
2018-09-24T06:20:14.860Z,34.47
2018-09-24T06:22:48.488Z,33.00
2018-09-24T06:25:22.397Z,36.93
2018-09-24T06:27:56.321Z,30.20
2018-09-24T06:30:30.193Z,32.47
2018-09-24T06:33:04.017Z,28.67
2018-09-24T06:35:37.690Z,32.37
2018-09-24T06:38:11.376Z,30.33
2018-09-24T06:40:45.085Z,24.63
2018-09-24T06:43:18.810Z,22.53
2018-09-24T06:45:52.445Z,24.13
2018-09-24T06:48:26.203Z,18.47
2018-09-24T06:50:59.961Z,13.30
2018-09-24T06:53:33.801Z,13.40
2018-09-24T06:56:07.610Z,10.47
2018-09-24T06:58:41.354Z,9.77
2018-09-24T07:01:15.173Z,9.23
2018-09-24T07:03:49.052Z,9.47
2018-09-24T07:06:22.817Z,8.07
2018-09-24T07:08:56.673Z,8.73
2018-09-24T07:11:30.427Z,7.07
2018-09-24T07:14:04.123Z,7.57
2018-09-24T07:16:38.061Z,8.20
2018-09-24T07:22:22.951Z,6.07
2018-09-24T07:24:56.791Z,7.07
2018-09-24T07:27:30.717Z,7.57
2018-09-24T07:30:04.523Z,7.00
2018-09-24T07:32:38.326Z,7.73
2018-09-24T07:35:12.222Z,9.13
2018-09-24T07:37:45.953Z,9.93
2018-09-24T07:40:19.862Z,5.37
2018-09-24T07:42:53.467Z,8.73
2018-09-24T07:45:27.266Z,5.00
2018-09-24T07:48:01.197Z,6.57
2018-09-24T07:50:35.082Z,7.57
2018-09-24T07:53:08.872Z,15.10
2018-09-24T07:55:42.693Z,7.27
2018-09-24T07:58:16.471Z,7.53
2018-09-24T08:00:50.307Z,4.63
2018-09-24T08:03:24.097Z,7.27
2018-09-24T08:05:57.961Z,8.47
2018-09-24T08:08:31.831Z,5.53
2018-09-24T08:11:05.488Z,6.53
2018-09-24T08:13:39.322Z,5.70
2018-09-24T08:16:13.137Z,6.03
2018-09-24T08:18:46.782Z,6.87
2018-09-24T08:21:20.437Z,9.17
2018-09-24T08:23:54.217Z,8.83
2018-09-24T08:26:28.053Z,10.43
2018-09-24T08:29:01.894Z,6.93
2018-09-24T08:31:35.698Z,7.40
2018-09-24T08:34:09.466Z,7.60
2018-09-24T08:36:43.243Z,7.10
2018-09-24T08:39:16.977Z,5.00
2018-09-24T08:41:50.885Z,5.23
2018-09-24T08:44:24.549Z,7.53
2018-09-24T08:46:58.240Z,6.50
2018-09-24T08:49:33.282Z,5.60
2018-09-24T08:52:06.898Z,5.87
2018-09-24T08:54:40.689Z,7.72
2018-09-24T08:57:14.626Z,6.93
2018-09-24T08:59:48.271Z,6.63
2018-09-24T09:02:21.985Z,6.33
2018-09-24T09:04:55.929Z,6.23
2018-09-24T09:07:29.809Z,3.57
2018-09-24T09:10:03.517Z,8.13
2018-09-24T09:12:37.432Z,6.47
2018-09-24T09:15:11.361Z,7.77
2018-09-24T09:17:45.131Z,8.20
2018-09-24T09:20:18.822Z,5.40
2018-09-24T09:22:52.628Z,4.83
2018-09-24T09:25:26.207Z,9.80
2018-09-24T09:28:00.065Z,5.17
2018-09-24T09:30:33.761Z,8.57
2018-09-24T09:33:07.576Z,5.23
2018-09-24T09:35:41.382Z,5.53
2018-09-24T09:38:15.063Z,6.30
2018-09-24T09:40:49.019Z,6.07
2018-09-24T09:43:22.916Z,6.43
2018-09-24T09:45:56.765Z,6.63
2018-09-24T09:48:31.944Z,8.80
2018-09-24T09:51:05.706Z,7.00
2018-09-24T09:53:39.716Z,4.40
2018-09-24T09:56:13.461Z,6.70
2018-09-24T09:58:47.248Z,5.40
2018-09-24T10:01:21.129Z,10.03
2018-09-24T10:03:54.882Z,7.13
2018-09-24T10:06:28.496Z,5.30
2018-09-24T10:09:02.390Z,7.03
2018-09-24T10:11:36.238Z,8.20
2018-09-24T10:14:09.959Z,5.07
2018-09-24T10:16:43.648Z,3.63
2018-09-24T10:19:17.594Z,5.20
2018-09-24T10:21:52.936Z,5.73
2018-09-24T10:24:26.721Z,3.50
2018-09-24T10:27:00.409Z,3.93
2018-09-24T10:29:34.262Z,5.83
2018-09-24T10:35:12.785Z,4.70
2018-09-24T10:37:46.461Z,6.83
2018-09-24T10:40:20.414Z,5.10
2018-09-24T10:42:54.299Z,9.03
2018-09-24T10:45:28.083Z,9.27
2018-09-24T10:48:01.895Z,7.10
2018-09-24T10:50:35.792Z,7.90
2018-09-24T10:53:09.749Z,4.50
2018-09-24T10:55:43.633Z,4.77
2018-09-24T10:58:17.557Z,4.83
2018-09-24T11:00:51.437Z,5.57
2018-09-24T11:03:25.408Z,8.10
2018-09-24T11:05:59.240Z,5.33
2018-09-24T11:08:33.007Z,6.10
2018-09-24T11:11:06.887Z,6.87
2018-09-24T11:13:40.779Z,10.83
2018-09-24T11:16:14.732Z,5.57
2018-09-24T11:18:48.489Z,5.20
2018-09-24T11:21:22.279Z,7.00
2018-09-24T11:23:56.597Z,6.97
2018-09-24T11:29:04.343Z,7.17
2018-09-24T11:31:38.263Z,4.37
2018-09-24T11:34:12.184Z,4.87
2018-09-24T11:36:46.013Z,7.60
2018-09-24T11:39:19.886Z,5.63
2018-09-24T11:41:53.693Z,3.43
2018-09-24T11:44:27.628Z,4.57
2018-09-24T11:47:01.508Z,5.23
2018-09-24T11:49:42.123Z,7.93
2018-09-24T11:52:15.840Z,5.57
2018-09-24T11:54:49.492Z,5.10
2018-09-24T11:57:23.364Z,6.90
2018-09-24T11:59:57.150Z,6.77
2018-09-24T12:02:31.166Z,6.90
2018-09-24T12:05:05.072Z,3.80
2018-09-24T12:07:38.950Z,3.07
2018-09-24T12:10:12.891Z,5.53
2018-09-24T12:12:46.537Z,7.93
2018-09-24T12:15:20.374Z,6.23
2018-09-24T12:17:54.038Z,7.10
2018-09-24T12:20:27.897Z,7.03
2018-09-24T12:23:01.676Z,6.90
2018-09-24T12:25:35.508Z,9.87
2018-09-24T12:28:09.329Z,4.17
2018-09-24T12:30:43.174Z,3.90
2018-09-24T12:33:16.823Z,4.07
2018-09-24T12:35:50.581Z,8.03
2018-09-24T12:38:24.319Z,3.77
2018-09-24T12:40:58.096Z,8.60
2018-09-24T12:43:31.770Z,3.87
2018-09-24T12:46:05.560Z,3.63
2018-09-24T12:48:39.306Z,6.10
2018-09-24T12:51:13.171Z,5.80
2018-09-24T12:53:46.994Z,4.60
2018-09-24T12:56:20.941Z,4.27
2018-09-24T12:58:54.724Z,4.90
2018-09-24T13:01:28.715Z,7.17
2018-09-24T13:04:02.538Z,5.87
2018-09-24T13:06:36.476Z,4.83
2018-09-24T13:09:12.082Z,6.53
2018-09-24T13:11:46.272Z,5.40
2018-09-24T13:14:20.112Z,6.13
2018-09-24T13:16:54.177Z,6.57
2018-09-24T13:19:28.157Z,3.93
2018-09-24T13:22:02.222Z,4.47
2018-09-24T13:24:36.063Z,4.13
2018-09-24T13:27:10.063Z,3.60
2018-09-24T13:29:43.752Z,5.80
2018-09-24T13:32:17.634Z,5.37
2018-09-24T13:34:51.384Z,5.13
2018-09-24T13:37:25.304Z,6.87
2018-09-24T13:39:59.150Z,4.57
2018-09-24T13:42:33.037Z,4.93
2018-09-24T13:45:06.872Z,5.60
2018-09-24T13:47:40.873Z,5.20
2018-09-24T13:50:14.798Z,3.07
2018-09-24T13:52:48.610Z,2.93
2018-09-24T13:55:22.557Z,5.03
2018-09-24T13:57:56.434Z,4.17
2018-09-24T14:00:31.144Z,4.97
2018-09-24T14:03:05.012Z,2.80
2018-09-24T14:05:38.945Z,6.07
2018-09-24T14:08:12.902Z,4.33
2018-09-24T14:10:46.808Z,4.57
2018-09-24T14:13:20.730Z,5.87
2018-09-24T14:15:54.619Z,2.37
2018-09-24T14:18:28.574Z,4.90
2018-09-24T14:21:04.480Z,5.03
2018-09-24T14:23:38.397Z,4.53
2018-09-24T14:26:12.477Z,4.27
2018-09-24T14:28:46.381Z,5.37
2018-09-24T14:31:20.388Z,3.70
2018-09-24T14:33:54.284Z,4.53
2018-09-24T14:36:28.248Z,6.40
2018-09-24T14:39:02.171Z,4.70
2018-09-24T14:41:36.075Z,5.90
2018-09-24T14:44:10.163Z,6.73
2018-09-24T14:46:44.042Z,3.50
2018-09-24T14:49:17.770Z,4.93
2018-09-24T14:51:51.565Z,4.50
2018-09-24T14:54:25.589Z,4.97
2018-09-24T14:56:59.410Z,4.77
2018-09-24T14:59:33.349Z,4.90
2018-09-24T15:02:07.142Z,5.47
2018-09-24T15:04:41.168Z,5.10
2018-09-24T15:07:14.920Z,3.47
2018-09-24T15:09:48.985Z,5.17
2018-09-24T15:12:22.844Z,9.00
2018-09-24T15:14:56.825Z,7.77
2018-09-24T15:17:30.805Z,4.73
2018-09-24T15:20:04.766Z,8.13
2018-09-24T15:22:38.666Z,7.97
2018-09-24T15:25:12.649Z,5.67
2018-09-24T15:27:46.598Z,5.00
2018-09-24T15:30:20.447Z,5.07
2018-09-24T15:32:54.292Z,4.87
2018-09-24T15:35:28.123Z,5.33
2018-09-24T15:38:02.047Z,5.63
2018-09-24T15:40:35.968Z,4.80
2018-09-24T15:43:10.112Z,3.53
2018-09-24T15:45:43.953Z,6.87
2018-09-24T15:48:17.834Z,6.90
2018-09-24T15:50:51.736Z,4.97
2018-09-24T15:53:25.594Z,6.47
2018-09-24T15:55:59.544Z,8.40
2018-09-24T15:58:33.452Z,5.47
2018-09-24T16:01:07.383Z,7.40
2018-09-24T16:03:41.158Z,4.20
2018-09-24T16:06:15.178Z,4.70
2018-09-24T16:08:49.147Z,6.67
2018-09-24T16:11:23.357Z,8.63
2018-09-24T16:13:57.310Z,9.37
2018-09-24T16:16:31.268Z,7.57
2018-09-24T16:19:05.056Z,10.43
2018-09-24T16:21:39.027Z,5.47
2018-09-24T16:24:12.830Z,5.07
2018-09-24T16:26:46.601Z,7.90
2018-09-24T16:29:20.321Z,6.70
2018-09-24T16:31:54.395Z,9.90
2018-09-24T16:34:28.306Z,5.03
2018-09-24T16:37:02.175Z,6.90
2018-09-24T16:39:36.233Z,8.00
2018-09-24T16:42:10.095Z,9.90
2018-09-24T16:44:44.013Z,10.30
2018-09-24T16:47:17.861Z,5.53
2018-09-24T16:49:51.717Z,10.83
2018-09-24T16:52:25.723Z,13.00
2018-09-24T16:54:59.425Z,9.97
2018-09-24T16:57:33.329Z,10.23
2018-09-24T17:00:07.274Z,8.30
2018-09-24T17:02:41.245Z,11.37
2018-09-24T17:05:15.195Z,8.37
2018-09-24T17:07:49.003Z,6.73
2018-09-24T17:10:22.841Z,8.17
2018-09-24T17:12:56.680Z,8.50
2018-09-24T17:15:30.494Z,5.47
2018-09-24T17:18:04.286Z,7.47
2018-09-24T17:20:38.178Z,5.40
2018-09-24T17:23:11.981Z,9.50
2018-09-24T17:25:45.801Z,7.70
2018-09-24T17:28:19.701Z,6.77
2018-09-24T17:30:53.599Z,6.07
2018-09-24T17:33:27.421Z,12.73
2018-09-24T17:36:01.317Z,7.80
2018-09-24T17:38:35.075Z,5.37
2018-09-24T17:41:09.066Z,6.83
2018-09-24T17:43:42.959Z,7.17
2018-09-24T17:46:16.938Z,8.20
2018-09-24T17:48:51.268Z,6.03
2018-09-24T17:51:25.248Z,7.23
2018-09-24T17:53:59.321Z,6.63
2018-09-24T17:56:33.118Z,7.03
2018-09-24T17:59:07.184Z,6.93
2018-09-24T18:01:40.995Z,6.93
2018-09-24T18:04:15.016Z,8.33
2018-09-24T18:06:49.021Z,9.23
2018-09-24T18:09:22.826Z,9.70
2018-09-24T18:11:56.848Z,7.90
2018-09-24T18:14:30.810Z,6.47
2018-09-24T18:17:05.065Z,7.23
2018-09-24T18:26:48.113Z,5.63
2018-09-24T18:29:24.944Z,7.97
2018-09-24T18:32:00.101Z,11.27
2018-09-24T18:34:34.092Z,11.00
2018-09-24T18:37:08.316Z,9.83
2018-09-24T18:39:42.298Z,8.97
2018-09-24T18:42:17.169Z,12.33
2018-09-24T18:44:51.315Z,9.93
2018-09-24T18:47:27.551Z,8.13
2018-09-24T18:50:15.988Z,10.77
2018-09-24T18:52:50.217Z,10.87
2018-09-24T18:55:24.679Z,10.70
2018-09-24T18:57:58.706Z,8.03
2018-09-24T19:00:32.852Z,7.67
2018-09-24T19:03:06.788Z,6.67
2018-09-24T19:05:40.712Z,6.27
2018-09-24T19:08:14.751Z,4.87
2018-09-24T19:13:29.548Z,5.93
2018-09-24T19:16:03.709Z,10.10
2018-09-24T19:18:37.775Z,16.03
2018-09-24T19:21:11.621Z,13.10
2018-09-24T19:23:45.824Z,8.27
2018-09-24T19:26:19.715Z,9.37
2018-09-24T19:28:53.762Z,10.03
2018-09-24T19:31:27.949Z,9.53
2018-09-24T19:34:01.708Z,10.30
2018-09-24T19:36:35.773Z,8.43
2018-09-24T19:39:11.287Z,11.00
2018-09-24T19:41:45.521Z,12.70
2018-09-24T19:44:19.357Z,7.43
2018-09-24T19:46:53.099Z,7.70
2018-09-24T19:49:27.713Z,7.33
2018-09-24T19:52:02.614Z,15.60
2018-09-24T19:54:37.260Z,10.30
2018-09-24T19:57:12.335Z,16.67
2018-09-24T19:59:46.850Z,11.90
2018-09-24T20:02:21.087Z,9.83
2018-09-24T20:04:55.316Z,11.53
2018-09-24T20:07:30.947Z,10.80
2018-09-24T20:10:05.448Z,11.53
2018-09-24T20:12:40.175Z,11.47
2018-09-24T20:15:14.590Z,10.40
2018-09-24T20:17:49.263Z,13.43
2018-09-24T20:20:23.583Z,12.73
2018-09-24T20:22:58.862Z,11.60
2018-09-24T20:25:33.274Z,16.50
2018-09-24T20:28:07.454Z,8.50
2018-09-24T20:30:41.824Z,11.30
2018-09-24T20:33:16.580Z,10.10
2018-09-24T20:35:50.934Z,10.73
2018-09-24T20:38:25.236Z,7.57
2018-09-24T20:40:59.719Z,12.03
2018-09-24T20:43:33.569Z,9.47
2018-09-24T20:46:07.549Z,13.20
2018-09-24T20:48:41.528Z,21.37
2018-09-24T20:51:15.218Z,10.57
2018-09-24T20:53:49.002Z,10.97
2018-09-24T20:56:22.739Z,11.50
2018-09-24T20:58:56.594Z,14.77
2018-09-24T21:01:30.571Z,7.17
2018-09-24T21:04:04.368Z,9.30
2018-09-24T21:06:38.135Z,18.70
2018-09-24T21:09:13.961Z,10.83
2018-09-24T21:11:47.805Z,10.73
2018-09-24T21:14:21.716Z,10.57
2018-09-24T21:16:55.472Z,9.47
2018-09-24T21:19:29.176Z,14.33
2018-09-24T21:22:02.964Z,17.70
2018-09-24T21:24:38.608Z,12.40
2018-09-24T21:27:12.320Z,11.57
2018-09-24T21:29:46.115Z,15.37
2018-09-24T21:32:19.973Z,8.93
2018-09-24T21:34:53.855Z,12.43
2018-09-24T21:37:27.833Z,8.23
2018-09-24T21:40:01.528Z,9.60
2018-09-24T21:42:35.537Z,12.60
2018-09-24T21:45:09.355Z,9.50
2018-09-24T21:47:43.279Z,13.47
2018-09-24T21:50:17.199Z,8.03
2018-09-24T21:52:51.067Z,13.87
2018-09-24T21:55:24.817Z,12.63
2018-09-24T21:57:58.580Z,10.57
2018-09-24T22:00:32.580Z,11.13
2018-09-24T22:03:06.398Z,15.33
2018-09-24T22:05:40.223Z,10.53
2018-09-24T22:08:13.987Z,9.70
2018-09-24T22:10:47.979Z,11.17
2018-09-24T22:13:21.820Z,8.40
2018-09-24T22:15:55.648Z,13.60
2018-09-24T22:18:29.534Z,13.43
2018-09-24T22:21:03.160Z,12.20
2018-09-24T22:23:36.994Z,13.73
2018-09-24T22:26:10.761Z,9.13
2018-09-24T22:28:44.361Z,8.50
2018-09-24T22:31:18.246Z,15.13
2018-09-24T22:33:52.228Z,8.00
2018-09-24T22:36:25.970Z,10.07
2018-09-24T22:38:59.692Z,13.40
2018-09-24T22:41:33.469Z,8.93
2018-09-24T22:44:07.212Z,7.63
2018-09-24T22:46:41.026Z,13.83
2018-09-24T22:49:14.786Z,8.87
2018-09-24T22:51:48.658Z,12.33
2018-09-24T22:54:22.555Z,8.10
2018-09-24T22:56:56.183Z,10.53
2018-09-24T22:59:29.957Z,13.13
2018-09-24T23:02:03.725Z,13.10
2018-09-24T23:04:37.399Z,11.40
2018-09-24T23:07:11.233Z,9.63
2018-09-24T23:09:45.006Z,10.20
2018-09-24T23:12:18.845Z,7.30
2018-09-24T23:14:52.608Z,12.43
2018-09-24T23:17:26.440Z,9.83
2018-09-24T23:20:00.187Z,9.47
2018-09-24T23:22:34.084Z,16.90
2018-09-24T23:25:07.889Z,13.70
2018-09-24T23:27:41.818Z,8.80
2018-09-24T23:30:15.690Z,9.70
2018-09-24T23:32:49.449Z,12.27
2018-09-24T23:35:23.277Z,9.47
2018-09-24T23:37:56.941Z,12.13
2018-09-24T23:40:30.722Z,9.27
2018-09-24T23:43:04.668Z,13.20
2018-09-24T23:45:38.500Z,9.93
2018-09-24T23:48:12.098Z,11.50
2018-09-24T23:50:45.945Z,12.13
2018-09-24T23:53:19.869Z,8.27
2018-09-24T23:55:53.825Z,10.13
2018-09-24T23:58:27.825Z,7.50
